Portada
METAR-TAF:

METAR-TAF

Aeroports :

Sion, Suïssa

latitud: 46-13N, longitud: 007-20E, altitud: 482 m

Observació

L'informe es va fer fa 33 minuts, a les 23:20 UTC
Vent calma
Temperatura 19°C
Humitat 78%
Pressió 1022 hPa
Visibilitat 10 km o més
sense núvols per sota de 1500 mi sense presència de cumulonimbus.

METAR: LSGS 182320Z AUTO 00000KT CAVOK 19/15 Q1022

Hora: 01:53 (23:53 UTC)

Pronòstic

L'informe es va fer fa 9 hores i 28 minuts, a les 14:25 UTC
Pronòstic vàlid del 18 a les 15 UTC al 18 a les 24 UTC
Vent 13 kt del Oest
Visibilitat 10 km o més
Escasses núvols a una alçada de 12000 ft
Evolucionant progressivament
l' 18 a les 18 UTC al 18 a les 20 UTC
Vent 2 kt amb direcció variable

TAF: LSGS 181425Z 1815/1824 26013KT 9999 FEW120 BECMG 1818/1820 VRB02KT

Observacions i pronòstics meteorològics de més de 4000 aeroports (METAR i TAF).

Les estacions disponibles són els punts grocs i vermells al mapa.

Posi el ratolí al punt desitjat per veure el nom de l'estació.

Feu clic per veure les observacions i els pronòstics meteorològics.

Per canviar el mapa: feu clic els botons verds amb una creu de color negre per apropar; al botó verd amb un guió per allunyar la imatge; o en les fletxes verdes per a mapes adjacents.


METAR-TAF: